sensor_id;sensor_type;location;lat;lon;timestamp;P1;durP1;ratioP1;P2;durP2;ratioP2
14665;SDS011;7420;53.574;10.040;2023-07-31T00:02:16;4.80;;;4.60;;
14665;SDS011;7420;53.574;10.040;2023-07-31T00:04:41;4.60;;;4.40;;
14665;SDS011;7420;53.574;10.040;2023-07-31T00:07:06;5.03;;;4.82;;
14665;SDS011;7420;53.574;10.040;2023-07-31T00:09:32;4.60;;;4.40;;
14665;SDS011;7420;53.574;10.040;2023-07-31T00:11:58;4.80;;;4.60;;
14665;SDS011;7420;53.574;10.040;2023-07-31T00:14:24;4.60;;;4.40;;
14665;SDS011;7420;53.574;10.040;2023-07-31T00:16:49;4.60;;;4.40;;
14665;SDS011;7420;53.574;10.040;2023-07-31T00:19:14;4.60;;;4.40;;
14665;SDS011;7420;53.574;10.040;2023-07-31T00:21:40;4.60;;;4.40;;
14665;SDS011;7420;53.574;10.040;2023-07-31T00:24:05;4.70;;;4.50;;
14665;SDS011;7420;53.574;10.040;2023-07-31T00:26:30;4.70;;;4.50;;
14665;SDS011;7420;53.574;10.040;2023-07-31T00:28:55;4.47;;;4.28;;
14665;SDS011;7420;53.574;10.040;2023-07-31T00:31:21;4.65;;;4.45;;
14665;SDS011;7420;53.574;10.040;2023-07-31T00:33:46;4.72;;;4.53;;
14665;SDS011;7420;53.574;10.040;2023-07-31T00:36:11;4.80;;;4.60;;
14665;SDS011;7420;53.574;10.040;2023-07-31T00:38:37;4.60;;;4.40;;
14665;SDS011;7420;53.574;10.040;2023-07-31T00:41:02;4.70;;;4.50;;
14665;SDS011;7420;53.574;10.040;2023-07-31T00:43:27;4.70;;;4.50;;
14665;SDS011;7420;53.574;10.040;2023-07-31T00:45:53;4.80;;;4.60;;
14665;SDS011;7420;53.574;10.040;2023-07-31T00:48:18;4.70;;;4.50;;
14665;SDS011;7420;53.574;10.040;2023-07-31T00:50:44;4.60;;;4.40;;
14665;SDS011;7420;53.574;10.040;2023-07-31T00:53:09;5.15;;;4.95;;
14665;SDS011;7420;53.574;10.040;2023-07-31T00:55:34;4.60;;;4.40;;
14665;SDS011;7420;53.574;10.040;2023-07-31T00:58:00;4.70;;;4.50;;
14665;SDS011;7420;53.574;10.040;2023-07-31T01:00:25;4.70;;;4.50;;
14665;SDS011;7420;53.574;10.040;2023-07-31T01:02:51;4.75;;;4.55;;
14665;SDS011;7420;53.574;10.040;2023-07-31T01:05:17;4.80;;;4.60;;
14665;SDS011;7420;53.574;10.040;2023-07-31T01:07:56;4.97;;;4.78;;
14665;SDS011;7420;53.574;10.040;2023-07-31T01:10:35;4.93;;;4.72;;
14665;SDS011;7420;53.574;10.040;2023-07-31T01:13:09;4.80;;;4.60;;
14665;SDS011;7420;53.574;10.040;2023-07-31T01:15:36;4.70;;;4.50;;
14665;SDS011;7420;53.574;10.040;2023-07-31T01:18:01;4.80;;;4.60;;
14665;SDS011;7420;53.574;10.040;2023-07-31T01:20:27;4.60;;;4.40;;
14665;SDS011;7420;53.574;10.040;2023-07-31T01:28:34;4.70;;;4.50;;
14665;SDS011;7420;53.574;10.040;2023-07-31T01:31:02;4.67;;;4.47;;
14665;SDS011;7420;53.574;10.040;2023-07-31T01:33:32;4.80;;;4.60;;
14665;SDS011;7420;53.574;10.040;2023-07-31T01:35:58;4.95;;;4.75;;
14665;SDS011;7420;53.574;10.040;2023-07-31T01:38:23;4.80;;;4.60;;
14665;SDS011;7420;53.574;10.040;2023-07-31T01:40:52;4.95;;;4.75;;
14665;SDS011;7420;53.574;10.040;2023-07-31T01:43:18;4.70;;;4.50;;
14665;SDS011;7420;53.574;10.040;2023-07-31T01:45:44;4.70;;;4.50;;
14665;SDS011;7420;53.574;10.040;2023-07-31T01:48:09;4.50;;;4.30;;
14665;SDS011;7420;53.574;10.040;2023-07-31T01:50:35;4.70;;;4.50;;
14665;SDS011;7420;53.574;10.040;2023-07-31T01:53:00;5.00;;;4.80;;
14665;SDS011;7420;53.574;10.040;2023-07-31T01:55:25;4.70;;;4.50;;
14665;SDS011;7420;53.574;10.040;2023-07-31T01:57:51;4.93;;;4.72;;
14665;SDS011;7420;53.574;10.040;2023-07-31T02:00:17;4.80;;;4.60;;
14665;SDS011;7420;53.574;10.040;2023-07-31T02:02:43;5.10;;;4.90;;
14665;SDS011;7420;53.574;10.040;2023-07-31T02:05:08;4.88;;;4.68;;
14665;SDS011;7420;53.574;10.040;2023-07-31T02:07:33;4.70;;;4.50;;
14665;SDS011;7420;53.574;10.040;2023-07-31T02:09:59;4.90;;;4.70;;
14665;SDS011;7420;53.574;10.040;2023-07-31T02:12:24;4.80;;;4.60;;
14665;SDS011;7420;53.574;10.040;2023-07-31T02:14:49;4.80;;;4.60;;
14665;SDS011;7420;53.574;10.040;2023-07-31T02:17:15;4.80;;;4.60;;
14665;SDS011;7420;53.574;10.040;2023-07-31T02:19:40;4.80;;;4.60;;
14665;SDS011;7420;53.574;10.040;2023-07-31T02:22:05;4.60;;;4.40;;
14665;SDS011;7420;53.574;10.040;2023-07-31T02:24:31;4.70;;;4.50;;
14665;SDS011;7420;53.574;10.040;2023-07-31T02:26:57;4.65;;;4.45;;
14665;SDS011;7420;53.574;10.040;2023-07-31T02:29:22;4.80;;;4.60;;
14665;SDS011;7420;53.574;10.040;2023-07-31T02:31:47;4.75;;;4.55;;
14665;SDS011;7420;53.574;10.040;2023-07-31T02:34:12;4.60;;;4.40;;
14665;SDS011;7420;53.574;10.040;2023-07-31T02:36:38;4.70;;;4.50;;
14665;SDS011;7420;53.574;10.040;2023-07-31T02:39:03;4.53;;;4.32;;
14665;SDS011;7420;53.574;10.040;2023-07-31T02:41:29;4.65;;;4.45;;
14665;SDS011;7420;53.574;10.040;2023-07-31T02:43:54;4.72;;;4.53;;
14665;SDS011;7420;53.574;10.040;2023-07-31T02:46:19;4.80;;;4.60;;
14665;SDS011;7420;53.574;10.040;2023-07-31T02:48:45;4.70;;;4.50;;
14665;SDS011;7420;53.574;10.040;2023-07-31T02:51:10;4.50;;;4.30;;
14665;SDS011;7420;53.574;10.040;2023-07-31T02:53:36;4.68;;;4.47;;
14665;SDS011;7420;53.574;10.040;2023-07-31T02:56:01;4.60;;;4.40;;
14665;SDS011;7420;53.574;10.040;2023-07-31T02:58:26;4.60;;;4.40;;
14665;SDS011;7420;53.574;10.040;2023-07-31T03:00:52;4.70;;;4.50;;
14665;SDS011;7420;53.574;10.040;2023-07-31T03:03:17;4.50;;;4.30;;
14665;SDS011;7420;53.574;10.040;2023-07-31T03:05:42;4.70;;;4.50;;
14665;SDS011;7420;53.574;10.040;2023-07-31T03:08:08;4.90;;;4.70;;
14665;SDS011;7420;53.574;10.040;2023-07-31T03:10:33;4.70;;;4.50;;
14665;SDS011;7420;53.574;10.040;2023-07-31T03:12:58;4.72;;;4.53;;
14665;SDS011;7420;53.574;10.040;2023-07-31T03:15:24;5.00;;;4.80;;
14665;SDS011;7420;53.574;10.040;2023-07-31T03:17:49;4.60;;;4.40;;
14665;SDS011;7420;53.574;10.040;2023-07-31T03:20:14;5.00;;;4.80;;
14665;SDS011;7420;53.574;10.040;2023-07-31T03:22:40;4.70;;;4.50;;
14665;SDS011;7420;53.574;10.040;2023-07-31T03:25:05;4.80;;;4.60;;
14665;SDS011;7420;53.574;10.040;2023-07-31T03:27:31;4.70;;;4.50;;
14665;SDS011;7420;53.574;10.040;2023-07-31T03:29:56;4.70;;;4.50;;
14665;SDS011;7420;53.574;10.040;2023-07-31T03:32:22;4.53;;;4.32;;
14665;SDS011;7420;53.574;10.040;2023-07-31T03:34:47;4.70;;;4.50;;
14665;SDS011;7420;53.574;10.040;2023-07-31T03:37:13;4.90;;;4.70;;
14665;SDS011;7420;53.574;10.040;2023-07-31T03:39:38;4.70;;;4.50;;
14665;SDS011;7420;53.574;10.040;2023-07-31T03:42:03;4.70;;;4.50;;
14665;SDS011;7420;53.574;10.040;2023-07-31T03:44:29;4.68;;;4.47;;
14665;SDS011;7420;53.574;10.040;2023-07-31T03:46:54;4.70;;;4.50;;
14665;SDS011;7420;53.574;10.040;2023-07-31T03:49:20;4.65;;;4.45;;
14665;SDS011;7420;53.574;10.040;2023-07-31T03:51:45;4.60;;;4.40;;
14665;SDS011;7420;53.574;10.040;2023-07-31T03:54:10;4.80;;;4.60;;
14665;SDS011;7420;53.574;10.040;2023-07-31T03:56:36;4.85;;;4.65;;
14665;SDS011;7420;53.574;10.040;2023-07-31T03:59:03;4.90;;;4.70;;
14665;SDS011;7420;53.574;10.040;2023-07-31T04:01:28;4.75;;;4.55;;
14665;SDS011;7420;53.574;10.040;2023-07-31T04:03:53;4.90;;;4.70;;
14665;SDS011;7420;53.574;10.040;2023-07-31T04:06:19;4.60;;;4.40;;
14665;SDS011;7420;53.574;10.040;2023-07-31T04:08:44;4.80;;;4.60;;
14665;SDS011;7420;53.574;10.040;2023-07-31T04:11:10;4.70;;;4.50;;
14665;SDS011;7420;53.574;10.040;2023-07-31T04:13:36;4.80;;;4.60;;
14665;SDS011;7420;53.574;10.040;2023-07-31T04:16:01;4.70;;;4.50;;
14665;SDS011;7420;53.574;10.040;2023-07-31T04:18:27;5.03;;;4.82;;
14665;SDS011;7420;53.574;10.040;2023-07-31T04:20:52;4.60;;;4.40;;
14665;SDS011;7420;53.574;10.040;2023-07-31T04:23:18;4.75;;;4.55;;
14665;SDS011;7420;53.574;10.040;2023-07-31T04:25:43;4.70;;;4.50;;
14665;SDS011;7420;53.574;10.040;2023-07-31T04:28:08;4.63;;;4.43;;
14665;SDS011;7420;53.574;10.040;2023-07-31T04:30:34;4.80;;;4.60;;
14665;SDS011;7420;53.574;10.040;2023-07-31T04:32:59;4.95;;;4.75;;
14665;SDS011;7420;53.574;10.040;2023-07-31T04:35:24;4.60;;;4.40;;
14665;SDS011;7420;53.574;10.040;2023-07-31T04:37:50;4.70;;;4.50;;
14665;SDS011;7420;53.574;10.040;2023-07-31T04:40:15;4.80;;;4.60;;
14665;SDS011;7420;53.574;10.040;2023-07-31T04:42:41;4.80;;;4.60;;
14665;SDS011;7420;53.574;10.040;2023-07-31T04:45:08;4.70;;;4.50;;
14665;SDS011;7420;53.574;10.040;2023-07-31T04:47:34;4.70;;;4.50;;
14665;SDS011;7420;53.574;10.040;2023-07-31T04:49:59;4.60;;;4.40;;
14665;SDS011;7420;53.574;10.040;2023-07-31T04:52:24;4.70;;;4.50;;
14665;SDS011;7420;53.574;10.040;2023-07-31T04:54:50;4.65;;;4.45;;
14665;SDS011;7420;53.574;10.040;2023-07-31T04:57:15;4.70;;;4.50;;
14665;SDS011;7420;53.574;10.040;2023-07-31T04:59:40;5.47;;;5.28;;
14665;SDS011;7420;53.574;10.040;2023-07-31T05:02:06;4.65;;;4.45;;
14665;SDS011;7420;53.574;10.040;2023-07-31T05:04:33;4.80;;;4.60;;
14665;SDS011;7420;53.574;10.040;2023-07-31T05:06:58;4.80;;;4.60;;
14665;SDS011;7420;53.574;10.040;2023-07-31T05:09:24;4.70;;;4.50;;
14665;SDS011;7420;53.574;10.040;2023-07-31T05:11:49;4.50;;;4.30;;
14665;SDS011;7420;53.574;10.040;2023-07-31T05:14:14;4.70;;;4.50;;
14665;SDS011;7420;53.574;10.040;2023-07-31T05:16:40;4.60;;;4.40;;
14665;SDS011;7420;53.574;10.040;2023-07-31T05:19:06;4.70;;;4.50;;
14665;SDS011;7420;53.574;10.040;2023-07-31T05:21:31;4.70;;;4.50;;
14665;SDS011;7420;53.574;10.040;2023-07-31T05:23:57;5.03;;;4.82;;
14665;SDS011;7420;53.574;10.040;2023-07-31T05:26:22;4.72;;;4.53;;
14665;SDS011;7420;53.574;10.040;2023-07-31T05:28:47;4.57;;;4.38;;
14665;SDS011;7420;53.574;10.040;2023-07-31T05:31:13;4.80;;;4.60;;
14665;SDS011;7420;53.574;10.040;2023-07-31T05:33:38;4.70;;;4.50;;
14665;SDS011;7420;53.574;10.040;2023-07-31T05:36:04;4.63;;;4.43;;
14665;SDS011;7420;53.574;10.040;2023-07-31T05:38:29;4.85;;;4.65;;
14665;SDS011;7420;53.574;10.040;2023-07-31T05:40:55;4.60;;;4.40;;
14665;SDS011;7420;53.574;10.040;2023-07-31T05:43:20;4.90;;;4.70;;
14665;SDS011;7420;53.574;10.040;2023-07-31T05:45:46;4.68;;;4.47;;
14665;SDS011;7420;53.574;10.040;2023-07-31T05:48:12;4.80;;;4.60;;
14665;SDS011;7420;53.574;10.040;2023-07-31T05:50:37;4.60;;;4.40;;
14665;SDS011;7420;53.574;10.040;2023-07-31T05:53:05;4.60;;;4.40;;
14665;SDS011;7420;53.574;10.040;2023-07-31T05:55:31;4.80;;;4.60;;
14665;SDS011;7420;53.574;10.040;2023-07-31T05:57:57;4.88;;;4.68;;
14665;SDS011;7420;53.574;10.040;2023-07-31T06:00:22;4.90;;;4.70;;
14665;SDS011;7420;53.574;10.040;2023-07-31T06:02:48;4.65;;;4.45;;
14665;SDS011;7420;53.574;10.040;2023-07-31T06:05:13;4.63;;;4.43;;
14665;SDS011;7420;53.574;10.040;2023-07-31T06:07:39;4.70;;;4.50;;
14665;SDS011;7420;53.574;10.040;2023-07-31T06:10:04;4.53;;;4.32;;
14665;SDS011;7420;53.574;10.040;2023-07-31T06:12:33;4.80;;;4.60;;
14665;SDS011;7420;53.574;10.040;2023-07-31T06:14:59;4.60;;;4.40;;
14665;SDS011;7420;53.574;10.040;2023-07-31T06:17:24;4.80;;;4.60;;
14665;SDS011;7420;53.574;10.040;2023-07-31T06:19:51;4.70;;;4.50;;
14665;SDS011;7420;53.574;10.040;2023-07-31T06:22:17;4.68;;;4.47;;
14665;SDS011;7420;53.574;10.040;2023-07-31T06:24:43;4.60;;;4.40;;
14665;SDS011;7420;53.574;10.040;2023-07-31T06:27:08;4.40;;;4.20;;
14665;SDS011;7420;53.574;10.040;2023-07-31T06:29:34;4.50;;;4.30;;
14665;SDS011;7420;53.574;10.040;2023-07-31T06:31:59;4.60;;;4.40;;
14665;SDS011;7420;53.574;10.040;2023-07-31T06:34:25;4.60;;;4.40;;
14665;SDS011;7420;53.574;10.040;2023-07-31T06:36:50;4.43;;;4.22;;
14665;SDS011;7420;53.574;10.040;2023-07-31T06:39:15;4.75;;;4.55;;
14665;SDS011;7420;53.574;10.040;2023-07-31T06:41:41;4.50;;;4.30;;
14665;SDS011;7420;53.574;10.040;2023-07-31T06:44:07;4.60;;;4.40;;
14665;SDS011;7420;53.574;10.040;2023-07-31T06:46:33;4.60;;;4.40;;
14665;SDS011;7420;53.574;10.040;2023-07-31T06:48:58;4.63;;;4.43;;
14665;SDS011;7420;53.574;10.040;2023-07-31T06:51:24;4.40;;;4.20;;
14665;SDS011;7420;53.574;10.040;2023-07-31T06:53:49;4.40;;;4.20;;
14665;SDS011;7420;53.574;10.040;2023-07-31T06:56:15;4.70;;;4.50;;
14665;SDS011;7420;53.574;10.040;2023-07-31T06:58:40;4.60;;;4.40;;
14665;SDS011;7420;53.574;10.040;2023-07-31T07:01:05;4.70;;;4.50;;
14665;SDS011;7420;53.574;10.040;2023-07-31T07:03:31;4.70;;;4.50;;
14665;SDS011;7420;53.574;10.040;2023-07-31T07:05:57;4.70;;;4.50;;
14665;SDS011;7420;53.574;10.040;2023-07-31T07:08:23;4.60;;;4.40;;
14665;SDS011;7420;53.574;10.040;2023-07-31T07:10:49;4.50;;;4.30;;
14665;SDS011;7420;53.574;10.040;2023-07-31T07:13:14;4.80;;;4.60;;
14665;SDS011;7420;53.574;10.040;2023-07-31T07:15:39;4.65;;;4.45;;
14665;SDS011;7420;53.574;10.040;2023-07-31T07:18:05;4.70;;;4.50;;
14665;SDS011;7420;53.574;10.040;2023-07-31T07:20:30;4.70;;;4.50;;
14665;SDS011;7420;53.574;10.040;2023-07-31T07:22:55;4.70;;;4.50;;
14665;SDS011;7420;53.574;10.040;2023-07-31T07:25:21;4.72;;;4.53;;
14665;SDS011;7420;53.574;10.040;2023-07-31T07:27:46;4.90;;;4.70;;
14665;SDS011;7420;53.574;10.040;2023-07-31T07:30:11;4.70;;;4.50;;
14665;SDS011;7420;53.574;10.040;2023-07-31T07:32:37;4.82;;;4.63;;
14665;SDS011;7420;53.574;10.040;2023-07-31T07:35:02;4.60;;;4.40;;
14665;SDS011;7420;53.574;10.040;2023-07-31T07:37:28;4.60;;;4.40;;
14665;SDS011;7420;53.574;10.040;2023-07-31T07:39:53;4.45;;;4.25;;
14665;SDS011;7420;53.574;10.040;2023-07-31T07:42:19;4.50;;;4.30;;
14665;SDS011;7420;53.574;10.040;2023-07-31T07:44:44;4.60;;;4.40;;
14665;SDS011;7420;53.574;10.040;2023-07-31T07:47:09;4.43;;;4.22;;
14665;SDS011;7420;53.574;10.040;2023-07-31T07:49:35;4.40;;;4.20;;
14665;SDS011;7420;53.574;10.040;2023-07-31T07:52:00;4.40;;;4.20;;
14665;SDS011;7420;53.574;10.040;2023-07-31T07:54:26;4.82;;;4.63;;
14665;SDS011;7420;53.574;10.040;2023-07-31T07:56:52;4.70;;;4.50;;
14665;SDS011;7420;53.574;10.040;2023-07-31T07:59:17;4.50;;;4.30;;
14665;SDS011;7420;53.574;10.040;2023-07-31T08:01:43;4.60;;;4.40;;
14665;SDS011;7420;53.574;10.040;2023-07-31T08:04:08;4.60;;;4.40;;
14665;SDS011;7420;53.574;10.040;2023-07-31T08:06:33;4.55;;;4.35;;
14665;SDS011;7420;53.574;10.040;2023-07-31T08:08:59;4.40;;;4.20;;
14665;SDS011;7420;53.574;10.040;2023-07-31T08:11:24;4.65;;;4.45;;
14665;SDS011;7420;53.574;10.040;2023-07-31T08:13:50;4.57;;;4.38;;
14665;SDS011;7420;53.574;10.040;2023-07-31T08:16:15;4.70;;;4.50;;
14665;SDS011;7420;53.574;10.040;2023-07-31T08:18:40;4.50;;;4.30;;
14665;SDS011;7420;53.574;10.040;2023-07-31T08:21:07;4.38;;;4.18;;
14665;SDS011;7420;53.574;10.040;2023-07-31T08:23:33;4.47;;;4.28;;
14665;SDS011;7420;53.574;10.040;2023-07-31T08:25:58;4.40;;;4.20;;
14665;SDS011;7420;53.574;10.040;2023-07-31T08:28:23;4.40;;;4.20;;
14665;SDS011;7420;53.574;10.040;2023-07-31T08:30:49;4.88;;;4.68;;
14665;SDS011;7420;53.574;10.040;2023-07-31T08:33:15;4.60;;;4.40;;
14665;SDS011;7420;53.574;10.040;2023-07-31T08:35:41;4.60;;;4.40;;
14665;SDS011;7420;53.574;10.040;2023-07-31T08:38:06;4.50;;;4.30;;
14665;SDS011;7420;53.574;10.040;2023-07-31T08:40:32;4.50;;;4.30;;
14665;SDS011;7420;53.574;10.040;2023-07-31T08:43:02;4.70;;;4.50;;
14665;SDS011;7420;53.574;10.040;2023-07-31T08:45:28;4.40;;;4.20;;
14665;SDS011;7420;53.574;10.040;2023-07-31T08:47:54;4.40;;;4.20;;
14665;SDS011;7420;53.574;10.040;2023-07-31T08:50:21;4.40;;;4.20;;
14665;SDS011;7420;53.574;10.040;2023-07-31T08:52:47;4.60;;;4.40;;
14665;SDS011;7420;53.574;10.040;2023-07-31T08:55:13;4.43;;;4.22;;
14665;SDS011;7420;53.574;10.040;2023-07-31T08:57:39;4.60;;;4.40;;
14665;SDS011;7420;53.574;10.040;2023-07-31T09:00:05;4.40;;;4.20;;
14665;SDS011;7420;53.574;10.040;2023-07-31T09:02:41;4.43;;;4.22;;
14665;SDS011;7420;53.574;10.040;2023-07-31T09:05:16;4.50;;;4.30;;
14665;SDS011;7420;53.574;10.040;2023-07-31T09:07:42;4.40;;;4.20;;
14665;SDS011;7420;53.574;10.040;2023-07-31T09:10:11;4.45;;;4.25;;
14665;SDS011;7420;53.574;10.040;2023-07-31T09:12:37;4.38;;;4.18;;
14665;SDS011;7420;53.574;10.040;2023-07-31T09:15:03;4.40;;;4.20;;
14665;SDS011;7420;53.574;10.040;2023-07-31T09:17:30;4.40;;;4.20;;
14665;SDS011;7420;53.574;10.040;2023-07-31T09:19:56;4.50;;;4.30;;
14665;SDS011;7420;53.574;10.040;2023-07-31T09:22:31;4.70;;;4.50;;
14665;SDS011;7420;53.574;10.040;2023-07-31T09:25:04;4.60;;;4.40;;
14665;SDS011;7420;53.574;10.040;2023-07-31T09:27:46;4.50;;;4.30;;
14665;SDS011;7420;53.574;10.040;2023-07-31T09:30:15;4.50;;;4.30;;
14665;SDS011;7420;53.574;10.040;2023-07-31T09:32:43;4.50;;;4.30;;
14665;SDS011;7420;53.574;10.040;2023-07-31T09:35:13;4.30;;;4.10;;
14665;SDS011;7420;53.574;10.040;2023-07-31T09:37:38;4.50;;;4.30;;
14665;SDS011;7420;53.574;10.040;2023-07-31T09:40:04;4.35;;;4.15;;
14665;SDS011;7420;53.574;10.040;2023-07-31T09:42:30;4.50;;;4.30;;
14665;SDS011;7420;53.574;10.040;2023-07-31T09:45:06;4.40;;;4.20;;
14665;SDS011;7420;53.574;10.040;2023-07-31T09:47:33;4.50;;;4.30;;
14665;SDS011;7420;53.574;10.040;2023-07-31T09:49:59;4.60;;;4.40;;
14665;SDS011;7420;53.574;10.040;2023-07-31T09:52:25;4.50;;;4.30;;
14665;SDS011;7420;53.574;10.040;2023-07-31T09:54:51;4.50;;;4.30;;
14665;SDS011;7420;53.574;10.040;2023-07-31T09:57:16;4.40;;;4.20;;
14665;SDS011;7420;53.574;10.040;2023-07-31T09:59:42;4.30;;;4.10;;
14665;SDS011;7420;53.574;10.040;2023-07-31T10:02:08;4.60;;;4.40;;
14665;SDS011;7420;53.574;10.040;2023-07-31T10:04:39;4.35;;;4.15;;
14665;SDS011;7420;53.574;10.040;2023-07-31T10:07:06;4.30;;;4.10;;
14665;SDS011;7420;53.574;10.040;2023-07-31T10:09:32;4.50;;;4.30;;
14665;SDS011;7420;53.574;10.040;2023-07-31T10:12:00;4.30;;;4.10;;
14665;SDS011;7420;53.574;10.040;2023-07-31T10:14:27;4.20;;;4.00;;
14665;SDS011;7420;53.574;10.040;2023-07-31T10:16:53;4.63;;;4.43;;
14665;SDS011;7420;53.574;10.040;2023-07-31T10:19:20;4.47;;;4.28;;
14665;SDS011;7420;53.574;10.040;2023-07-31T10:21:47;4.40;;;4.20;;
14665;SDS011;7420;53.574;10.040;2023-07-31T10:24:13;4.50;;;4.30;;
14665;SDS011;7420;53.574;10.040;2023-07-31T10:26:40;4.40;;;4.20;;
14665;SDS011;7420;53.574;10.040;2023-07-31T10:29:06;4.50;;;4.30;;
14665;SDS011;7420;53.574;10.040;2023-07-31T10:31:32;4.47;;;4.28;;
14665;SDS011;7420;53.574;10.040;2023-07-31T10:33:58;4.50;;;4.30;;
14665;SDS011;7420;53.574;10.040;2023-07-31T10:36:25;4.40;;;4.20;;
14665;SDS011;7420;53.574;10.040;2023-07-31T10:38:52;4.30;;;4.10;;
14665;SDS011;7420;53.574;10.040;2023-07-31T10:41:17;4.70;;;4.50;;
14665;SDS011;7420;53.574;10.040;2023-07-31T10:43:43;4.30;;;4.10;;
14665;SDS011;7420;53.574;10.040;2023-07-31T10:46:12;4.50;;;4.30;;
14665;SDS011;7420;53.574;10.040;2023-07-31T10:48:38;4.43;;;4.22;;
14665;SDS011;7420;53.574;10.040;2023-07-31T10:51:08;4.40;;;4.20;;
14665;SDS011;7420;53.574;10.040;2023-07-31T10:53:37;4.40;;;4.20;;
14665;SDS011;7420;53.574;10.040;2023-07-31T10:56:08;4.30;;;4.10;;
14665;SDS011;7420;53.574;10.040;2023-07-31T10:58:35;4.40;;;4.20;;
14665;SDS011;7420;53.574;10.040;2023-07-31T11:01:05;4.40;;;4.20;;
14665;SDS011;7420;53.574;10.040;2023-07-31T11:03:47;4.50;;;4.30;;
14665;SDS011;7420;53.574;10.040;2023-07-31T11:06:14;4.20;;;4.00;;
14665;SDS011;7420;53.574;10.040;2023-07-31T11:08:41;4.38;;;4.18;;
14665;SDS011;7420;53.574;10.040;2023-07-31T11:11:09;4.40;;;4.20;;
14665;SDS011;7420;53.574;10.040;2023-07-31T11:13:43;4.30;;;4.10;;
14665;SDS011;7420;53.574;10.040;2023-07-31T11:16:10;4.40;;;4.20;;
14665;SDS011;7420;53.574;10.040;2023-07-31T11:18:42;4.20;;;4.00;;
14665;SDS011;7420;53.574;10.040;2023-07-31T11:21:12;4.30;;;4.10;;
14665;SDS011;7420;53.574;10.040;2023-07-31T11:23:38;4.45;;;4.25;;
14665;SDS011;7420;53.574;10.040;2023-07-31T11:26:04;4.30;;;4.10;;
14665;SDS011;7420;53.574;10.040;2023-07-31T11:28:34;4.20;;;4.00;;
14665;SDS011;7420;53.574;10.040;2023-07-31T11:31:01;4.30;;;4.10;;
14665;SDS011;7420;53.574;10.040;2023-07-31T11:33:27;4.40;;;4.20;;
14665;SDS011;7420;53.574;10.040;2023-07-31T11:35:52;4.30;;;4.10;;
14665;SDS011;7420;53.574;10.040;2023-07-31T11:38:25;4.38;;;4.18;;
14665;SDS011;7420;53.574;10.040;2023-07-31T11:40:52;4.40;;;4.20;;
14665;SDS011;7420;53.574;10.040;2023-07-31T11:43:19;4.40;;;4.20;;
14665;SDS011;7420;53.574;10.040;2023-07-31T11:45:49;4.50;;;4.30;;
14665;SDS011;7420;53.574;10.040;2023-07-31T11:48:20;4.30;;;4.10;;
14665;SDS011;7420;53.574;10.040;2023-07-31T11:50:53;4.35;;;4.15;;
14665;SDS011;7420;53.574;10.040;2023-07-31T11:53:23;4.30;;;4.10;;
14665;SDS011;7420;53.574;10.040;2023-07-31T11:55:53;4.40;;;4.20;;
14665;SDS011;7420;53.574;10.040;2023-07-31T11:58:22;4.32;;;4.13;;
14665;SDS011;7420;53.574;10.040;2023-07-31T12:00:48;4.30;;;4.10;;
14665;SDS011;7420;53.574;10.040;2023-07-31T12:03:14;4.20;;;4.00;;
14665;SDS011;7420;53.574;10.040;2023-07-31T12:05:40;4.30;;;4.10;;
14665;SDS011;7420;53.574;10.040;2023-07-31T12:08:09;4.40;;;4.20;;
14665;SDS011;7420;53.574;10.040;2023-07-31T12:10:37;4.30;;;4.10;;
14665;SDS011;7420;53.574;10.040;2023-07-31T12:13:12;4.40;;;4.20;;
14665;SDS011;7420;53.574;10.040;2023-07-31T12:15:57;4.50;;;4.30;;
14665;SDS011;7420;53.574;10.040;2023-07-31T12:18:27;4.40;;;4.20;;
14665;SDS011;7420;53.574;10.040;2023-07-31T12:20:58;4.40;;;4.20;;
14665;SDS011;7420;53.574;10.040;2023-07-31T12:23:26;4.30;;;4.10;;
14665;SDS011;7420;53.574;10.040;2023-07-31T12:26:06;4.50;;;4.30;;
14665;SDS011;7420;53.574;10.040;2023-07-31T12:28:50;4.50;;;4.30;;
14665;SDS011;7420;53.574;10.040;2023-07-31T12:31:20;4.30;;;4.10;;
14665;SDS011;7420;53.574;10.040;2023-07-31T12:33:48;4.30;;;4.10;;
14665;SDS011;7420;53.574;10.040;2023-07-31T12:36:15;4.40;;;4.20;;
14665;SDS011;7420;53.574;10.040;2023-07-31T12:38:43;4.40;;;4.20;;
14665;SDS011;7420;53.574;10.040;2023-07-31T12:41:08;4.38;;;4.18;;
14665;SDS011;7420;53.574;10.040;2023-07-31T12:43:34;4.30;;;4.10;;
14665;SDS011;7420;53.574;10.040;2023-07-31T12:46:01;4.30;;;4.10;;
14665;SDS011;7420;53.574;10.040;2023-07-31T12:48:26;4.30;;;4.10;;
14665;SDS011;7420;53.574;10.040;2023-07-31T12:50:51;4.50;;;4.30;;
14665;SDS011;7420;53.574;10.040;2023-07-31T12:53:17;4.50;;;4.30;;
14665;SDS011;7420;53.574;10.040;2023-07-31T12:55:42;4.30;;;4.10;;
14665;SDS011;7420;53.574;10.040;2023-07-31T12:58:07;4.38;;;4.18;;
14665;SDS011;7420;53.574;10.040;2023-07-31T13:00:33;4.50;;;4.30;;
14665;SDS011;7420;53.574;10.040;2023-07-31T13:02:59;4.20;;;4.00;;
14665;SDS011;7420;53.574;10.040;2023-07-31T13:05:25;4.30;;;4.10;;
14665;SDS011;7420;53.574;10.040;2023-07-31T13:07:50;4.25;;;4.05;;
14665;SDS011;7420;53.574;10.040;2023-07-31T13:10:16;4.30;;;4.10;;
14665;SDS011;7420;53.574;10.040;2023-07-31T13:12:41;4.30;;;4.10;;
14665;SDS011;7420;53.574;10.040;2023-07-31T13:15:06;4.30;;;4.10;;
14665;SDS011;7420;53.574;10.040;2023-07-31T13:17:33;4.35;;;4.15;;
14665;SDS011;7420;53.574;10.040;2023-07-31T13:19:58;4.40;;;4.20;;
14665;SDS011;7420;53.574;10.040;2023-07-31T13:22:24;4.22;;;4.03;;
14665;SDS011;7420;53.574;10.040;2023-07-31T13:24:50;4.20;;;4.00;;
14665;SDS011;7420;53.574;10.040;2023-07-31T13:27:15;4.00;;;3.90;;
14665;SDS011;7420;53.574;10.040;2023-07-31T13:29:44;4.30;;;4.10;;
14665;SDS011;7420;53.574;10.040;2023-07-31T13:32:10;4.35;;;4.15;;
14665;SDS011;7420;53.574;10.040;2023-07-31T13:34:36;4.30;;;4.10;;
14665;SDS011;7420;53.574;10.040;2023-07-31T13:37:01;4.38;;;4.18;;
14665;SDS011;7420;53.574;10.040;2023-07-31T13:39:26;4.43;;;4.22;;
14665;SDS011;7420;53.574;10.040;2023-07-31T13:41:52;4.00;;;3.90;;
14665;SDS011;7420;53.574;10.040;2023-07-31T13:44:17;4.00;;;3.90;;
14665;SDS011;7420;53.574;10.040;2023-07-31T13:46:42;4.30;;;4.10;;
14665;SDS011;7420;53.574;10.040;2023-07-31T13:49:08;4.50;;;4.30;;
14665;SDS011;7420;53.574;10.040;2023-07-31T13:51:33;4.20;;;4.00;;
14665;SDS011;7420;53.574;10.040;2023-07-31T13:53:58;4.00;;;3.90;;
14665;SDS011;7420;53.574;10.040;2023-07-31T13:56:24;4.30;;;4.10;;
14665;SDS011;7420;53.574;10.040;2023-07-31T13:58:49;4.00;;;3.90;;
14665;SDS011;7420;53.574;10.040;2023-07-31T14:01:14;4.28;;;4.07;;
14665;SDS011;7420;53.574;10.040;2023-07-31T14:03:40;4.40;;;4.20;;
14665;SDS011;7420;53.574;10.040;2023-07-31T14:06:05;4.20;;;4.00;;
14665;SDS011;7420;53.574;10.040;2023-07-31T14:08:30;4.30;;;4.10;;
14665;SDS011;7420;53.574;10.040;2023-07-31T14:10:56;4.30;;;4.10;;
14665;SDS011;7420;53.574;10.040;2023-07-31T14:13:21;4.00;;;3.90;;
14665;SDS011;7420;53.574;10.040;2023-07-31T14:15:47;4.30;;;4.10;;
14665;SDS011;7420;53.574;10.040;2023-07-31T14:18:12;4.30;;;4.10;;
14665;SDS011;7420;53.574;10.040;2023-07-31T14:20:37;4.20;;;4.00;;
14665;SDS011;7420;53.574;10.040;2023-07-31T14:23:03;4.53;;;4.32;;
14665;SDS011;7420;53.574;10.040;2023-07-31T14:25:28;4.18;;;4.00;;
14665;SDS011;7420;53.574;10.040;2023-07-31T14:27:53;4.20;;;4.00;;
14665;SDS011;7420;53.574;10.040;2023-07-31T14:30:19;4.13;;;3.97;;
14665;SDS011;7420;53.574;10.040;2023-07-31T14:32:45;4.30;;;4.10;;
14665;SDS011;7420;53.574;10.040;2023-07-31T14:35:10;4.40;;;4.20;;
14665;SDS011;7420;53.574;10.040;2023-07-31T14:37:36;4.30;;;4.10;;
14665;SDS011;7420;53.574;10.040;2023-07-31T14:40:07;4.30;;;4.10;;
14665;SDS011;7420;53.574;10.040;2023-07-31T14:42:33;4.30;;;4.10;;
14665;SDS011;7420;53.574;10.040;2023-07-31T14:44:59;4.30;;;4.10;;
14665;SDS011;7420;53.574;10.040;2023-07-31T14:47:24;4.20;;;4.00;;
14665;SDS011;7420;53.574;10.040;2023-07-31T14:49:49;4.30;;;4.10;;